sensor_id;sensor_type;location;lat;lon;timestamp;P1;durP1;ratioP1;P2;durP2;ratioP2
24173;SDS011;12324;48.146;11.502;2023-05-07T00:01:22;18.20;;;8.57;;
24173;SDS011;12324;48.146;11.502;2023-05-07T00:03:49;15.25;;;8.30;;
24173;SDS011;12324;48.146;11.502;2023-05-07T00:06:16;14.73;;;7.97;;
24173;SDS011;12324;48.146;11.502;2023-05-07T00:08:43;17.05;;;8.77;;
24173;SDS011;12324;48.146;11.502;2023-05-07T00:11:09;14.60;;;8.55;;
24173;SDS011;12324;48.146;11.502;2023-05-07T00:13:36;16.13;;;7.90;;
24173;SDS011;12324;48.146;11.502;2023-05-07T00:16:03;15.05;;;8.27;;
24173;SDS011;12324;48.146;11.502;2023-05-07T00:18:30;15.73;;;7.93;;
24173;SDS011;12324;48.146;11.502;2023-05-07T00:20:57;13.82;;;7.72;;
24173;SDS011;12324;48.146;11.502;2023-05-07T00:23:24;15.38;;;8.10;;
24173;SDS011;12324;48.146;11.502;2023-05-07T00:25:50;16.02;;;8.10;;
24173;SDS011;12324;48.146;11.502;2023-05-07T00:28:17;16.00;;;8.50;;
24173;SDS011;12324;48.146;11.502;2023-05-07T00:30:43;17.50;;;8.70;;
24173;SDS011;12324;48.146;11.502;2023-05-07T00:33:10;15.27;;;8.23;;
24173;SDS011;12324;48.146;11.502;2023-05-07T00:35:37;14.75;;;8.15;;
24173;SDS011;12324;48.146;11.502;2023-05-07T00:38:04;16.52;;;8.73;;
24173;SDS011;12324;48.146;11.502;2023-05-07T00:40:30;16.20;;;8.85;;
24173;SDS011;12324;48.146;11.502;2023-05-07T00:42:57;17.75;;;8.25;;
24173;SDS011;12324;48.146;11.502;2023-05-07T00:45:28;14.73;;;8.18;;
24173;SDS011;12324;48.146;11.502;2023-05-07T00:47:55;16.17;;;8.75;;
24173;SDS011;12324;48.146;11.502;2023-05-07T00:50:23;15.15;;;7.57;;
24173;SDS011;12324;48.146;11.502;2023-05-07T00:52:50;14.77;;;7.95;;
24173;SDS011;12324;48.146;11.502;2023-05-07T00:55:17;14.57;;;8.50;;
24173;SDS011;12324;48.146;11.502;2023-05-07T00:57:44;16.90;;;7.95;;
24173;SDS011;12324;48.146;11.502;2023-05-07T01:00:11;16.88;;;8.25;;
24173;SDS011;12324;48.146;11.502;2023-05-07T01:02:39;15.15;;;8.70;;
24173;SDS011;12324;48.146;11.502;2023-05-07T01:05:16;14.25;;;8.13;;
24173;SDS011;12324;48.146;11.502;2023-05-07T01:07:45;17.00;;;8.60;;
24173;SDS011;12324;48.146;11.502;2023-05-07T01:10:13;15.80;;;8.60;;
24173;SDS011;12324;48.146;11.502;2023-05-07T01:12:40;17.02;;;9.07;;
24173;SDS011;12324;48.146;11.502;2023-05-07T01:15:08;16.25;;;8.25;;
24173;SDS011;12324;48.146;11.502;2023-05-07T01:17:36;16.13;;;8.68;;
24173;SDS011;12324;48.146;11.502;2023-05-07T01:20:07;14.95;;;8.10;;
24173;SDS011;12324;48.146;11.502;2023-05-07T01:22:37;14.98;;;8.75;;
24173;SDS011;12324;48.146;11.502;2023-05-07T01:25:05;14.93;;;8.88;;
24173;SDS011;12324;48.146;11.502;2023-05-07T01:27:33;15.82;;;8.73;;
24173;SDS011;12324;48.146;11.502;2023-05-07T01:30:05;17.30;;;8.50;;
24173;SDS011;12324;48.146;11.502;2023-05-07T01:35:10;15.95;;;9.07;;
24173;SDS011;12324;48.146;11.502;2023-05-07T01:37:40;15.07;;;8.20;;
24173;SDS011;12324;48.146;11.502;2023-05-07T01:40:07;14.90;;;8.13;;
24173;SDS011;12324;48.146;11.502;2023-05-07T01:42:35;19.63;;;8.77;;
24173;SDS011;12324;48.146;11.502;2023-05-07T01:45:02;14.55;;;7.63;;
24173;SDS011;12324;48.146;11.502;2023-05-07T01:47:29;16.42;;;8.80;;
24173;SDS011;12324;48.146;11.502;2023-05-07T01:49:56;15.48;;;8.23;;
24173;SDS011;12324;48.146;11.502;2023-05-07T01:52:24;17.92;;;8.15;;
24173;SDS011;12324;48.146;11.502;2023-05-07T01:54:51;15.98;;;8.13;;
24173;SDS011;12324;48.146;11.502;2023-05-07T01:57:17;14.65;;;8.20;;
24173;SDS011;12324;48.146;11.502;2023-05-07T01:59:44;15.43;;;8.75;;
24173;SDS011;12324;48.146;11.502;2023-05-07T02:02:11;16.88;;;8.70;;
24173;SDS011;12324;48.146;11.502;2023-05-07T02:04:38;15.93;;;8.63;;
24173;SDS011;12324;48.146;11.502;2023-05-07T02:07:04;17.08;;;9.15;;
24173;SDS011;12324;48.146;11.502;2023-05-07T02:09:31;14.60;;;8.73;;
24173;SDS011;12324;48.146;11.502;2023-05-07T02:11:58;15.70;;;8.70;;
24173;SDS011;12324;48.146;11.502;2023-05-07T02:14:24;15.95;;;8.15;;
24173;SDS011;12324;48.146;11.502;2023-05-07T02:16:52;15.27;;;8.50;;
24173;SDS011;12324;48.146;11.502;2023-05-07T02:19:18;14.63;;;8.00;;
24173;SDS011;12324;48.146;11.502;2023-05-07T02:21:47;14.52;;;7.97;;
24173;SDS011;12324;48.146;11.502;2023-05-07T02:24:14;17.58;;;9.20;;
24173;SDS011;12324;48.146;11.502;2023-05-07T02:26:41;16.17;;;8.65;;
24173;SDS011;12324;48.146;11.502;2023-05-07T02:29:07;17.73;;;8.48;;
24173;SDS011;12324;48.146;11.502;2023-05-07T02:31:34;17.77;;;9.20;;
24173;SDS011;12324;48.146;11.502;2023-05-07T02:34:01;16.27;;;7.85;;
24173;SDS011;12324;48.146;11.502;2023-05-07T02:36:28;14.95;;;8.35;;
24173;SDS011;12324;48.146;11.502;2023-05-07T02:38:54;15.88;;;8.27;;
24173;SDS011;12324;48.146;11.502;2023-05-07T02:41:21;17.77;;;8.65;;
24173;SDS011;12324;48.146;11.502;2023-05-07T02:43:48;16.90;;;8.23;;
24173;SDS011;12324;48.146;11.502;2023-05-07T02:46:14;15.15;;;8.05;;
24173;SDS011;12324;48.146;11.502;2023-05-07T02:48:42;15.40;;;8.43;;
24173;SDS011;12324;48.146;11.502;2023-05-07T02:51:09;17.48;;;7.90;;
24173;SDS011;12324;48.146;11.502;2023-05-07T02:53:35;15.77;;;8.13;;
24173;SDS011;12324;48.146;11.502;2023-05-07T02:56:02;15.10;;;8.23;;
24173;SDS011;12324;48.146;11.502;2023-05-07T02:58:29;14.57;;;8.23;;
24173;SDS011;12324;48.146;11.502;2023-05-07T03:00:56;14.27;;;8.25;;
24173;SDS011;12324;48.146;11.502;2023-05-07T03:03:23;14.65;;;7.43;;
24173;SDS011;12324;48.146;11.502;2023-05-07T03:05:50;13.90;;;7.18;;
24173;SDS011;12324;48.146;11.502;2023-05-07T03:08:16;12.07;;;6.97;;
24173;SDS011;12324;48.146;11.502;2023-05-07T03:10:43;14.25;;;6.80;;
24173;SDS011;12324;48.146;11.502;2023-05-07T03:13:10;13.48;;;7.35;;
24173;SDS011;12324;48.146;11.502;2023-05-07T03:15:37;12.63;;;6.63;;
24173;SDS011;12324;48.146;11.502;2023-05-07T03:18:04;13.07;;;6.72;;
24173;SDS011;12324;48.146;11.502;2023-05-07T03:20:30;13.57;;;6.75;;
24173;SDS011;12324;48.146;11.502;2023-05-07T03:22:57;13.73;;;7.28;;
24173;SDS011;12324;48.146;11.502;2023-05-07T03:25:24;13.88;;;6.72;;
24173;SDS011;12324;48.146;11.502;2023-05-07T03:27:51;12.77;;;6.70;;
24173;SDS011;12324;48.146;11.502;2023-05-07T03:30:17;13.68;;;6.78;;
24173;SDS011;12324;48.146;11.502;2023-05-07T03:32:45;14.27;;;7.20;;
24173;SDS011;12324;48.146;11.502;2023-05-07T03:35:11;13.30;;;6.55;;
24173;SDS011;12324;48.146;11.502;2023-05-07T03:37:38;15.20;;;7.25;;
24173;SDS011;12324;48.146;11.502;2023-05-07T03:40:06;12.52;;;6.82;;
24173;SDS011;12324;48.146;11.502;2023-05-07T03:42:34;12.73;;;6.72;;
24173;SDS011;12324;48.146;11.502;2023-05-07T03:45:01;14.48;;;6.45;;
24173;SDS011;12324;48.146;11.502;2023-05-07T03:47:27;12.52;;;6.57;;
24173;SDS011;12324;48.146;11.502;2023-05-07T03:49:54;12.30;;;6.65;;
24173;SDS011;12324;48.146;11.502;2023-05-07T03:52:21;13.43;;;6.40;;
24173;SDS011;12324;48.146;11.502;2023-05-07T03:54:52;13.80;;;7.07;;
24173;SDS011;12324;48.146;11.502;2023-05-07T03:57:19;13.95;;;7.40;;
24173;SDS011;12324;48.146;11.502;2023-05-07T03:59:46;14.80;;;6.95;;
24173;SDS011;12324;48.146;11.502;2023-05-07T04:02:13;14.25;;;7.68;;
24173;SDS011;12324;48.146;11.502;2023-05-07T04:04:39;12.23;;;6.50;;
24173;SDS011;12324;48.146;11.502;2023-05-07T04:07:06;13.90;;;6.85;;
24173;SDS011;12324;48.146;11.502;2023-05-07T04:09:33;12.48;;;6.82;;
24173;SDS011;12324;48.146;11.502;2023-05-07T04:12:00;12.27;;;6.65;;
24173;SDS011;12324;48.146;11.502;2023-05-07T04:14:27;12.77;;;6.75;;
24173;SDS011;12324;48.146;11.502;2023-05-07T04:16:54;14.02;;;7.32;;
24173;SDS011;12324;48.146;11.502;2023-05-07T04:19:20;12.07;;;6.55;;
24173;SDS011;12324;48.146;11.502;2023-05-07T04:21:47;14.07;;;6.65;;
24173;SDS011;12324;48.146;11.502;2023-05-07T04:24:14;12.73;;;6.63;;
24173;SDS011;12324;48.146;11.502;2023-05-07T04:26:40;14.23;;;6.93;;
24173;SDS011;12324;48.146;11.502;2023-05-07T04:29:07;13.07;;;6.93;;
24173;SDS011;12324;48.146;11.502;2023-05-07T04:31:34;13.85;;;6.45;;
24173;SDS011;12324;48.146;11.502;2023-05-07T04:34:00;13.25;;;6.50;;
24173;SDS011;12324;48.146;11.502;2023-05-07T04:36:27;13.50;;;6.80;;
24173;SDS011;12324;48.146;11.502;2023-05-07T04:38:55;13.77;;;6.85;;
24173;SDS011;12324;48.146;11.502;2023-05-07T04:41:21;12.20;;;6.35;;
24173;SDS011;12324;48.146;11.502;2023-05-07T04:43:48;11.77;;;5.97;;
24173;SDS011;12324;48.146;11.502;2023-05-07T04:46:15;10.23;;;5.60;;
24173;SDS011;12324;48.146;11.502;2023-05-07T04:48:42;10.43;;;5.72;;
24173;SDS011;12324;48.146;11.502;2023-05-07T04:51:08;15.57;;;6.38;;
24173;SDS011;12324;48.146;11.502;2023-05-07T04:53:35;11.40;;;6.05;;
24173;SDS011;12324;48.146;11.502;2023-05-07T04:56:02;14.10;;;6.15;;
24173;SDS011;12324;48.146;11.502;2023-05-07T04:58:28;11.73;;;6.13;;
24173;SDS011;12324;48.146;11.502;2023-05-07T05:00:58;14.05;;;6.65;;
24173;SDS011;12324;48.146;11.502;2023-05-07T05:03:25;14.48;;;6.22;;
24173;SDS011;12324;48.146;11.502;2023-05-07T05:05:52;12.48;;;6.32;;
24173;SDS011;12324;48.146;11.502;2023-05-07T05:08:19;11.60;;;6.28;;
24173;SDS011;12324;48.146;11.502;2023-05-07T05:10:45;11.93;;;5.90;;
24173;SDS011;12324;48.146;11.502;2023-05-07T05:13:14;9.57;;;5.50;;
24173;SDS011;12324;48.146;11.502;2023-05-07T05:15:41;11.10;;;5.95;;
24173;SDS011;12324;48.146;11.502;2023-05-07T05:18:08;11.15;;;5.65;;
24173;SDS011;12324;48.146;11.502;2023-05-07T05:20:35;10.95;;;6.00;;
24173;SDS011;12324;48.146;11.502;2023-05-07T05:23:02;9.70;;;5.38;;
24173;SDS011;12324;48.146;11.502;2023-05-07T05:25:28;11.07;;;6.07;;
24173;SDS011;12324;48.146;11.502;2023-05-07T05:27:55;11.13;;;5.60;;
24173;SDS011;12324;48.146;11.502;2023-05-07T05:30:23;12.18;;;5.70;;
24173;SDS011;12324;48.146;11.502;2023-05-07T05:32:50;10.77;;;5.72;;
24173;SDS011;12324;48.146;11.502;2023-05-07T05:35:17;11.13;;;5.80;;
24173;SDS011;12324;48.146;11.502;2023-05-07T05:37:44;8.13;;;4.50;;
24173;SDS011;12324;48.146;11.502;2023-05-07T05:40:11;9.70;;;4.97;;
24173;SDS011;12324;48.146;11.502;2023-05-07T05:42:38;11.15;;;5.22;;
24173;SDS011;12324;48.146;11.502;2023-05-07T05:45:06;8.95;;;4.53;;
24173;SDS011;12324;48.146;11.502;2023-05-07T05:47:33;8.45;;;4.47;;
24173;SDS011;12324;48.146;11.502;2023-05-07T05:50:00;10.70;;;4.63;;
24173;SDS011;12324;48.146;11.502;2023-05-07T05:52:27;11.82;;;5.43;;
24173;SDS011;12324;48.146;11.502;2023-05-07T05:54:54;8.98;;;4.68;;
24173;SDS011;12324;48.146;11.502;2023-05-07T05:57:21;10.85;;;5.20;;
24173;SDS011;12324;48.146;11.502;2023-05-07T05:59:48;8.93;;;5.03;;
24173;SDS011;12324;48.146;11.502;2023-05-07T06:02:15;10.45;;;5.22;;
24173;SDS011;12324;48.146;11.502;2023-05-07T06:04:42;11.57;;;5.43;;
24173;SDS011;12324;48.146;11.502;2023-05-07T06:07:09;9.50;;;5.07;;
24173;SDS011;12324;48.146;11.502;2023-05-07T06:09:37;9.18;;;4.88;;
24173;SDS011;12324;48.146;11.502;2023-05-07T06:12:04;10.43;;;4.45;;
24173;SDS011;12324;48.146;11.502;2023-05-07T06:14:31;10.05;;;4.88;;
24173;SDS011;12324;48.146;11.502;2023-05-07T06:16:59;10.77;;;4.88;;
24173;SDS011;12324;48.146;11.502;2023-05-07T06:19:26;8.07;;;4.22;;
24173;SDS011;12324;48.146;11.502;2023-05-07T06:21:54;7.88;;;4.40;;
24173;SDS011;12324;48.146;11.502;2023-05-07T06:24:22;9.02;;;4.53;;
24173;SDS011;12324;48.146;11.502;2023-05-07T06:26:49;8.55;;;4.03;;
24173;SDS011;12324;48.146;11.502;2023-05-07T06:29:16;8.55;;;4.60;;
24173;SDS011;12324;48.146;11.502;2023-05-07T06:31:43;10.07;;;4.40;;
24173;SDS011;12324;48.146;11.502;2023-05-07T06:34:10;8.50;;;4.55;;
24173;SDS011;12324;48.146;11.502;2023-05-07T06:36:40;9.68;;;4.90;;
24173;SDS011;12324;48.146;11.502;2023-05-07T06:39:07;8.43;;;4.40;;
24173;SDS011;12324;48.146;11.502;2023-05-07T06:41:35;8.55;;;4.18;;
24173;SDS011;12324;48.146;11.502;2023-05-07T06:44:02;7.68;;;3.95;;
24173;SDS011;12324;48.146;11.502;2023-05-07T06:46:29;8.85;;;4.10;;
24173;SDS011;12324;48.146;11.502;2023-05-07T06:48:56;7.93;;;4.05;;
24173;SDS011;12324;48.146;11.502;2023-05-07T06:51:23;8.20;;;4.30;;
24173;SDS011;12324;48.146;11.502;2023-05-07T06:53:51;8.10;;;4.05;;
24173;SDS011;12324;48.146;11.502;2023-05-07T06:56:18;5.35;;;3.17;;
24173;SDS011;12324;48.146;11.502;2023-05-07T06:58:46;7.65;;;4.15;;
24173;SDS011;12324;48.146;11.502;2023-05-07T07:01:13;7.65;;;3.30;;
24173;SDS011;12324;48.146;11.502;2023-05-07T07:03:40;7.03;;;3.38;;
24173;SDS011;12324;48.146;11.502;2023-05-07T07:06:07;6.85;;;3.38;;
24173;SDS011;12324;48.146;11.502;2023-05-07T07:08:34;6.65;;;3.50;;
24173;SDS011;12324;48.146;11.502;2023-05-07T07:11:01;5.35;;;3.25;;
24173;SDS011;12324;48.146;11.502;2023-05-07T07:13:28;5.07;;;3.47;;
24173;SDS011;12324;48.146;11.502;2023-05-07T07:15:55;5.50;;;3.13;;
24173;SDS011;12324;48.146;11.502;2023-05-07T07:18:22;5.03;;;2.78;;
24173;SDS011;12324;48.146;11.502;2023-05-07T07:20:49;7.78;;;3.42;;
24173;SDS011;12324;48.146;11.502;2023-05-07T07:23:16;6.70;;;3.38;;
24173;SDS011;12324;48.146;11.502;2023-05-07T07:25:44;6.10;;;3.20;;
24173;SDS011;12324;48.146;11.502;2023-05-07T07:28:11;5.65;;;3.13;;
24173;SDS011;12324;48.146;11.502;2023-05-07T07:30:38;9.00;;;4.13;;
24173;SDS011;12324;48.146;11.502;2023-05-07T07:33:05;6.75;;;3.10;;
24173;SDS011;12324;48.146;11.502;2023-05-07T07:35:32;4.18;;;3.00;;
24173;SDS011;12324;48.146;11.502;2023-05-07T07:37:59;5.63;;;2.90;;
24173;SDS011;12324;48.146;11.502;2023-05-07T07:40:27;5.35;;;3.20;;
24173;SDS011;12324;48.146;11.502;2023-05-07T07:42:54;6.03;;;3.13;;
24173;SDS011;12324;48.146;11.502;2023-05-07T07:45:21;5.28;;;3.20;;
24173;SDS011;12324;48.146;11.502;2023-05-07T07:47:48;5.32;;;2.85;;
24173;SDS011;12324;48.146;11.502;2023-05-07T07:50:16;6.38;;;3.17;;
24173;SDS011;12324;48.146;11.502;2023-05-07T07:53:03;6.00;;;2.83;;
24173;SDS011;12324;48.146;11.502;2023-05-07T07:55:30;5.90;;;2.90;;
24173;SDS011;12324;48.146;11.502;2023-05-07T07:57:58;5.45;;;2.90;;
24173;SDS011;12324;48.146;11.502;2023-05-07T08:00:25;7.00;;;3.42;;
24173;SDS011;12324;48.146;11.502;2023-05-07T08:02:52;6.07;;;3.13;;
24173;SDS011;12324;48.146;11.502;2023-05-07T08:05:20;4.60;;;2.72;;
24173;SDS011;12324;48.146;11.502;2023-05-07T08:07:47;6.57;;;3.42;;
24173;SDS011;12324;48.146;11.502;2023-05-07T08:10:18;5.82;;;2.60;;
24173;SDS011;12324;48.146;11.502;2023-05-07T08:12:48;6.68;;;3.35;;
24173;SDS011;12324;48.146;11.502;2023-05-07T08:15:16;6.97;;;3.38;;
24173;SDS011;12324;48.146;11.502;2023-05-07T08:17:43;3.75;;;2.28;;
24173;SDS011;12324;48.146;11.502;2023-05-07T08:20:13;4.70;;;3.17;;
24173;SDS011;12324;48.146;11.502;2023-05-07T08:22:40;5.65;;;3.13;;
24173;SDS011;12324;48.146;11.502;2023-05-07T08:25:07;7.55;;;3.53;;
24173;SDS011;12324;48.146;11.502;2023-05-07T08:27:34;6.40;;;3.65;;
24173;SDS011;12324;48.146;11.502;2023-05-07T08:30:02;7.93;;;3.47;;
24173;SDS011;12324;48.146;11.502;2023-05-07T08:32:29;5.32;;;3.20;;
24173;SDS011;12324;48.146;11.502;2023-05-07T08:34:56;6.22;;;3.35;;
24173;SDS011;12324;48.146;11.502;2023-05-07T08:37:23;7.25;;;3.30;;
24173;SDS011;12324;48.146;11.502;2023-05-07T08:39:50;5.82;;;3.20;;
24173;SDS011;12324;48.146;11.502;2023-05-07T08:42:17;4.85;;;2.97;;
24173;SDS011;12324;48.146;11.502;2023-05-07T08:44:45;6.50;;;2.88;;
24173;SDS011;12324;48.146;11.502;2023-05-07T08:47:13;6.43;;;3.10;;
24173;SDS011;12324;48.146;11.502;2023-05-07T08:49:40;4.45;;;2.80;;
24173;SDS011;12324;48.146;11.502;2023-05-07T08:52:07;6.32;;;3.08;;
24173;SDS011;12324;48.146;11.502;2023-05-07T08:54:36;4.50;;;2.65;;
24173;SDS011;12324;48.146;11.502;2023-05-07T08:57:04;6.20;;;2.92;;
24173;SDS011;12324;48.146;11.502;2023-05-07T08:59:31;6.22;;;2.83;;
24173;SDS011;12324;48.146;11.502;2023-05-07T09:01:58;4.28;;;2.47;;
24173;SDS011;12324;48.146;11.502;2023-05-07T09:04:26;5.03;;;2.50;;
24173;SDS011;12324;48.146;11.502;2023-05-07T09:06:53;5.88;;;2.60;;
24173;SDS011;12324;48.146;11.502;2023-05-07T09:09:21;6.43;;;2.67;;
24173;SDS011;12324;48.146;11.502;2023-05-07T09:11:48;4.47;;;2.45;;
24173;SDS011;12324;48.146;11.502;2023-05-07T09:14:16;4.35;;;2.67;;
24173;SDS011;12324;48.146;11.502;2023-05-07T09:16:43;4.78;;;2.75;;
24173;SDS011;12324;48.146;11.502;2023-05-07T09:19:11;4.47;;;2.50;;
24173;SDS011;12324;48.146;11.502;2023-05-07T09:21:38;5.18;;;2.58;;
24173;SDS011;12324;48.146;11.502;2023-05-07T09:24:05;8.48;;;3.33;;
24173;SDS011;12324;48.146;11.502;2023-05-07T09:26:32;4.78;;;2.83;;
24173;SDS011;12324;48.146;11.502;2023-05-07T09:29:00;7.20;;;2.95;;
24173;SDS011;12324;48.146;11.502;2023-05-07T09:31:27;6.38;;;2.42;;
24173;SDS011;12324;48.146;11.502;2023-05-07T09:33:55;4.05;;;2.05;;
24173;SDS011;12324;48.146;11.502;2023-05-07T09:36:22;3.90;;;2.10;;
24173;SDS011;12324;48.146;11.502;2023-05-07T09:38:49;4.82;;;2.45;;
24173;SDS011;12324;48.146;11.502;2023-05-07T09:41:17;6.03;;;2.55;;
24173;SDS011;12324;48.146;11.502;2023-05-07T09:43:45;4.40;;;2.22;;
24173;SDS011;12324;48.146;11.502;2023-05-07T09:46:13;4.32;;;2.53;;
24173;SDS011;12324;48.146;11.502;2023-05-07T09:48:42;5.80;;;3.20;;
24173;SDS011;12324;48.146;11.502;2023-05-07T09:51:18;7.70;;;2.65;;
24173;SDS011;12324;48.146;11.502;2023-05-07T09:53:48;5.10;;;2.97;;
24173;SDS011;12324;48.146;11.502;2023-05-07T09:56:17;26.30;;;23.75;;
24173;SDS011;12324;48.146;11.502;2023-05-07T09:58:44;21.95;;;15.57;;
24173;SDS011;12324;48.146;11.502;2023-05-07T10:01:12;11.18;;;5.85;;
24173;SDS011;12324;48.146;11.502;2023-05-07T10:03:41;58.08;;;53.72;;
24173;SDS011;12324;48.146;11.502;2023-05-07T10:06:10;8.60;;;5.60;;
24173;SDS011;12324;48.146;11.502;2023-05-07T10:08:37;21.48;;;19.48;;
24173;SDS011;12324;48.146;11.502;2023-05-07T10:11:04;9.02;;;5.88;;
24173;SDS011;12324;48.146;11.502;2023-05-07T10:13:34;6.07;;;3.08;;
24173;SDS011;12324;48.146;11.502;2023-05-07T10:16:04;4.10;;;2.50;;
24173;SDS011;12324;48.146;11.502;2023-05-07T10:18:31;16.88;;;9.00;;
24173;SDS011;12324;48.146;11.502;2023-05-07T10:21:11;26.05;;;19.75;;
24173;SDS011;12324;48.146;11.502;2023-05-07T10:23:38;14.48;;;7.75;;
24173;SDS011;12324;48.146;11.502;2023-05-07T10:26:06;20.23;;;12.48;;
24173;SDS011;12324;48.146;11.502;2023-05-07T10:28:36;21.55;;;14.45;;
24173;SDS011;12324;48.146;11.502;2023-05-07T10:31:29;14.20;;;7.80;;
24173;SDS011;12324;48.146;11.502;2023-05-07T10:34:00;4.63;;;2.63;;
24173;SDS011;12324;48.146;11.502;2023-05-07T10:36:29;6.85;;;3.10;;
24173;SDS011;12324;48.146;11.502;2023-05-07T10:38:57;3.13;;;2.10;;
24173;SDS011;12324;48.146;11.502;2023-05-07T10:41:24;6.78;;;3.20;;
24173;SDS011;12324;48.146;11.502;2023-05-07T10:43:51;15.48;;;7.38;;
24173;SDS011;12324;48.146;11.502;2023-05-07T10:46:19;19.55;;;8.45;;
24173;SDS011;12324;48.146;11.502;2023-05-07T10:51:30;47.17;;;34.17;;
24173;SDS011;12324;48.146;11.502;2023-05-07T10:56:38;7.70;;;3.83;;
24173;SDS011;12324;48.146;11.502;2023-05-07T11:01:53;5.75;;;2.65;;
24173;SDS011;12324;48.146;11.502;2023-05-07T11:04:22;6.20;;;2.47;;
24173;SDS011;12324;48.146;11.502;2023-05-07T11:13:04;27.48;;;15.98;;
24173;SDS011;12324;48.146;11.502;2023-05-07T11:15:07;6.65;;;3.15;;
24173;SDS011;12324;48.146;11.502;2023-05-07T11:17:51;2.85;;;1.63;;
24173;SDS011;12324;48.146;11.502;2023-05-07T11:20:19;3.17;;;1.70;;
24173;SDS011;12324;48.146;11.502;2023-05-07T11:22:47;4.72;;;2.30;;
24173;SDS011;12324;48.146;11.502;2023-05-07T11:25:17;3.17;;;2.20;;
24173;SDS011;12324;48.146;11.502;2023-05-07T11:27:45;3.25;;;2.10;;
24173;SDS011;12324;48.146;11.502;2023-05-07T11:30:18;5.65;;;2.20;;
24173;SDS011;12324;48.146;11.502;2023-05-07T11:32:48;7.18;;;2.92;;
24173;SDS011;12324;48.146;11.502;2023-05-07T11:35:15;3.80;;;2.20;;
24173;SDS011;12324;48.146;11.502;2023-05-07T11:37:42;4.53;;;2.00;;
24173;SDS011;12324;48.146;11.502;2023-05-07T11:40:11;4.47;;;2.35;;
24173;SDS011;12324;48.146;11.502;2023-05-07T11:42:40;3.42;;;1.98;;
24173;SDS011;12324;48.146;11.502;2023-05-07T11:45:09;6.35;;;2.30;;
24173;SDS011;12324;48.146;11.502;2023-05-07T11:47:37;4.80;;;2.35;;
24173;SDS011;12324;48.146;11.502;2023-05-07T11:50:05;5.25;;;2.30;;
24173;SDS011;12324;48.146;11.502;2023-05-07T11:52:34;3.72;;;2.20;;
24173;SDS011;12324;48.146;11.502;2023-05-07T11:55:02;3.55;;;2.03;;
24173;SDS011;12324;48.146;11.502;2023-05-07T11:57:32;5.72;;;2.50;;
24173;SDS011;12324;48.146;11.502;2023-05-07T12:00:00;4.70;;;2.30;;
24173;SDS011;12324;48.146;11.502;2023-05-07T12:02:30;6.40;;;2.30;;
24173;SDS011;12324;48.146;11.502;2023-05-07T12:04:57;6.95;;;2.25;;
24173;SDS011;12324;48.146;11.502;2023-05-07T12:07:28;3.42;;;2.10;;
24173;SDS011;12324;48.146;11.502;2023-05-07T12:09:55;4.78;;;2.58;;
24173;SDS011;12324;48.146;11.502;2023-05-07T12:12:22;4.30;;;2.38;;
24173;SDS011;12324;48.146;11.502;2023-05-07T12:14:49;3.22;;;2.30;;
24173;SDS011;12324;48.146;11.502;2023-05-07T12:17:16;5.35;;;2.58;;
24173;SDS011;12324;48.146;11.502;2023-05-07T12:19:44;5.90;;;2.45;;
24173;SDS011;12324;48.146;11.502;2023-05-07T12:22:11;3.35;;;2.20;;
24173;SDS011;12324;48.146;11.502;2023-05-07T12:24:49;5.70;;;2.60;;
24173;SDS011;12324;48.146;11.502;2023-05-07T12:27:16;3.58;;;2.15;;
24173;SDS011;12324;48.146;11.502;2023-05-07T12:29:44;4.53;;;2.42;;
24173;SDS011;12324;48.146;11.502;2023-05-07T12:32:18;2.53;;;1.83;;
24173;SDS011;12324;48.146;11.502;2023-05-07T12:34:46;4.68;;;2.10;;
24173;SDS011;12324;48.146;11.502;2023-05-07T12:37:16;2.75;;;1.73;;
24173;SDS011;12324;48.146;11.502;2023-05-07T12:39:50;6.18;;;2.60;;
24173;SDS011;12324;48.146;11.502;2023-05-07T12:42:33;4.45;;;2.40;;
24173;SDS011;12324;48.146;11.502;2023-05-07T12:45:08;3.17;;;2.22;;
24173;SDS011;12324;48.146;11.502;2023-05-07T12:47:36;3.58;;;2.10;;
24173;SDS011;12324;48.146;11.502;2023-05-07T12:50:06;4.63;;;2.33;;
24173;SDS011;12324;48.146;11.502;2023-05-07T12:52:34;3.13;;;1.90;;
24173;SDS011;12324;48.146;11.502;2023-05-07T12:55:05;2.83;;;1.92;;
24173;SDS011;12324;48.146;11.502;2023-05-07T12:57:39;3.17;;;2.00;;
24173;SDS011;12324;48.146;11.502;2023-05-07T13:00:06;5.90;;;2.55;;
24173;SDS011;12324;48.146;11.502;2023-05-07T13:02:38;4.13;;;2.20;;
24173;SDS011;12324;48.146;11.502;2023-05-07T13:05:06;4.30;;;2.30;;
24173;SDS011;12324;48.146;11.502;2023-05-07T13:07:33;4.18;;;2.30;;
24173;SDS011;12324;48.146;11.502;2023-05-07T13:10:01;4.05;;;2.38;;
24173;SDS011;12324;48.146;11.502;2023-05-07T13:12:28;5.32;;;2.53;;
24173;SDS011;12324;48.146;11.502;2023-05-07T13:14:55;2.90;;;1.95;;
24173;SDS011;12324;48.146;11.502;2023-05-07T13:17:22;3.22;;;2.17;;
24173;SDS011;12324;48.146;11.502;2023-05-07T13:19:49;2.70;;;2.05;;
24173;SDS011;12324;48.146;11.502;2023-05-07T13:22:17;3.63;;;2.08;;
24173;SDS011;12324;48.146;11.502;2023-05-07T13:24:44;2.42;;;1.88;;
24173;SDS011;12324;48.146;11.502;2023-05-07T13:27:11;2.08;;;1.65;;
24173;SDS011;12324;48.146;11.502;2023-05-07T13:29:38;2.55;;;1.75;;
24173;SDS011;12324;48.146;11.502;2023-05-07T13:32:05;2.67;;;1.73;;
24173;SDS011;12324;48.146;11.502;2023-05-07T13:34:32;3.97;;;2.38;;
24173;SDS011;12324;48.146;11.502;2023-05-07T13:36:59;4.95;;;1.98;;
24173;SDS011;12324;48.146;11.502;2023-05-07T13:39:27;2.35;;;1.80;;
24173;SDS011;12324;48.146;11.502;2023-05-07T13:41:54;2.85;;;1.67;;
24173;SDS011;12324;48.146;11.502;2023-05-07T13:44:21;4.85;;;1.92;;
24173;SDS011;12324;48.146;11.502;2023-05-07T13:46:48;3.20;;;1.60;;
24173;SDS011;12324;48.146;11.502;2023-05-07T13:49:15;2.63;;;1.80;;
24173;SDS011;12324;48.146;11.502;2023-05-07T13:51:42;2.50;;;1.80;;
24173;SDS011;12324;48.146;11.502;2023-05-07T13:54:09;5.32;;;2.03;;
24173;SDS011;12324;48.146;11.502;2023-05-07T13:56:37;3.63;;;2.00;;
24173;SDS011;12324;48.146;11.502;2023-05-07T13:59:04;3.30;;;1.73;;
24173;SDS011;12324;48.146;11.502;2023-05-07T14:01:31;4.50;;;1.65;;
24173;SDS011;12324;48.146;11.502;2023-05-07T14:03:58;5.82;;;1.85;;
24173;SDS011;12324;48.146;11.502;2023-05-07T14:06:25;5.80;;;2.10;;
24173;SDS011;12324;48.146;11.502;2023-05-07T14:08:52;3.38;;;1.92;;
24173;SDS011;12324;48.146;11.502;2023-05-07T14:11:20;2.38;;;1.85;;
24173;SDS011;12324;48.146;11.502;2023-05-07T14:13:47;5.07;;;2.28;;
24173;SDS011;12324;48.146;11.502;2023-05-07T14:16:14;5.13;;;2.38;;
24173;SDS011;12324;48.146;11.502;2023-05-07T14:18:41;3.55;;;2.20;;
24173;SDS011;12324;48.146;11.502;2023-05-07T14:21:08;6.05;;;2.83;;
24173;SDS011;12324;48.146;11.502;2023-05-07T14:23:36;4.65;;;2.63;;
24173;SDS011;12324;48.146;11.502;2023-05-07T14:26:03;3.70;;;2.45;;
24173;SDS011;12324;48.146;11.502;2023-05-07T14:28:30;5.30;;;2.13;;
24173;SDS011;12324;48.146;11.502;2023-05-07T14:30:57;6.28;;;2.05;;
24173;SDS011;12324;48.146;11.502;2023-05-07T14:33:24;4.63;;;2.17;;
24173;SDS011;12324;48.146;11.502;2023-05-07T14:35:51;4.20;;;2.05;;
24173;SDS011;12324;48.146;11.502;2023-05-07T14:38:19;4.07;;;2.20;;
24173;SDS011;12324;48.146;11.502;2023-05-07T14:40:46;6.05;;;2.10;;
24173;SDS011;12324;48.146;11.502;2023-05-07T14:43:14;2.88;;;2.08;;
24173;SDS011;12324;48.146;11.502;2023-05-07T14:45:41;4.28;;;2.30;;
24173;SDS011;12324;48.146;11.502;2023-05-07T14:48:08;4.72;;;1.98;;